Time;durP1;ratioP1;P1;durP2;ratioP2;P2;SDS_P1;SDS_P2;PMS_P1;PMS_P2;Temp;Humidity;BMP_temperature;BMP_pressure;BME280_temperature;BME280_humidity;BME280_pressure;Samples;Min_cycle;Max_cycle;Signal;HPM_P1;HPM_P2
2022/02/19 00:00:48;;;;;;;8.73;1.90;;;9.10;37.10;;;;;;4910268;29;20223;-76
2022/02/19 00:03:15;;;;;;;4.80;1.70;;;9.10;37.00;;;;;;4905068;29;20214;-77
2022/02/19 00:05:42;;;;;;;9.73;2.10;;;9.10;37.60;;;;;;4899304;29;20224;-76
2022/02/19 00:08:13;;;;;;;6.13;1.80;;;9.00;38.00;;;;;;4900616;29;20228;-75
2022/02/19 00:10:40;;;;;;;5.65;1.60;;;9.00;38.50;;;;;;4903371;29;20233;-75
2022/02/19 00:13:07;;;;;;;8.40;1.70;;;9.00;39.60;;;;;;4901878;29;20242;-75
2022/02/19 00:15:34;;;;;;;6.90;1.60;;;8.90;39.50;;;;;;4904158;29;20211;-75
2022/02/19 00:18:01;;;;;;;10.93;2.10;;;8.90;39.50;;;;;;4901019;29;20323;-76
2022/02/19 00:20:30;;;;;;;11.32;2.22;;;8.90;39.50;;;;;;4900434;29;20242;-75
2022/02/19 00:22:57;;;;;;;10.00;2.00;;;8.90;39.50;;;;;;4900607;29;20568;-75
2022/02/19 00:25:26;;;;;;;10.88;2.30;;;8.90;39.20;;;;;;4900870;29;20241;-76
2022/02/19 00:27:53;;;;;;;7.78;1.50;;;9.00;39.10;;;;;;4904823;29;20575;-74
2022/02/19 00:30:20;;;;;;;8.90;1.52;;;8.90;39.30;;;;;;4901517;29;20218;-76
2022/02/19 00:32:47;;;;;;;5.00;1.88;;;8.90;39.50;;;;;;4900512;29;20215;-74
2022/02/19 00:35:14;;;;;;;6.95;1.27;;;8.90;39.50;;;;;;4899424;29;20245;-77
2022/02/19 00:37:41;;;;;;;6.13;2.63;;;8.90;39.50;;;;;;4898574;29;20732;-74
2022/02/19 00:40:09;;;;;;;3.28;1.45;;;8.80;39.40;;;;;;4898017;29;20232;-73
2022/02/19 00:42:38;;;;;;;5.95;1.70;;;8.90;39.10;;;;;;4898203;29;20280;-73
2022/02/19 00:45:05;;;;;;;8.93;2.00;;;8.80;39.40;;;;;;4898226;29;20238;-77
2022/02/19 00:47:32;;;;;;;9.57;1.98;;;8.80;38.40;;;;;;4897891;29;20583;-73
2022/02/19 00:49:59;;;;;;;6.53;1.60;;;8.80;38.60;;;;;;4897753;29;20683;-77
2022/02/19 00:52:26;;;;;;;7.45;1.52;;;8.70;38.50;;;;;;4897893;29;20543;-73
2022/02/19 00:54:53;;;;;;;5.45;1.50;;;8.70;38.40;;;;;;4898007;29;20204;-73
2022/02/19 00:57:20;;;;;;;11.45;2.80;;;8.70;38.30;;;;;;4898158;29;20220;-76
2022/02/19 00:59:48;;;;;;;4.95;1.40;;;8.60;38.20;;;;;;4898266;29;20308;-74
2022/02/19 01:02:15;;;;;;;6.38;1.63;;;8.60;37.80;;;;;;4898355;29;20229;-74
2022/02/19 01:04:41;;;;;;;8.90;1.30;;;8.60;37.80;;;;;;4902533;29;20280;-74
2022/02/19 01:07:08;;;;;;;6.75;2.00;;;8.60;37.50;;;;;;4880180;29;20215;-75
2022/02/19 01:09:35;;;;;;;6.13;1.48;;;8.50;37.50;;;;;;4879029;29;20683;-74
2022/02/19 01:12:02;;;;;;;7.25;1.90;;;8.50;37.00;;;;;;4879814;29;20213;-75
2022/02/19 01:14:29;;;;;;;6.03;2.13;;;8.50;36.90;;;;;;4879599;29;20786;-75
2022/02/19 01:16:57;;;;;;;4.28;1.55;;;8.50;35.60;;;;;;4884463;29;20257;-74
2022/02/19 01:19:25;;;;;;;6.07;1.40;;;8.50;34.80;;;;;;4884102;29;20229;-73
2022/02/19 01:21:52;;;;;;;8.18;1.75;;;8.50;34.80;;;;;;4879934;29;20237;-75
2022/02/19 01:24:20;;;;;;;7.18;1.80;;;8.40;34.60;;;;;;4895099;29;20212;-74
2022/02/19 01:26:47;;;;;;;4.65;2.10;;;8.40;34.70;;;;;;4897222;29;20217;-74
2022/02/19 01:29:14;;;;;;;3.70;1.90;;;8.30;34.50;;;;;;4897027;29;20260;-74
2022/02/19 01:31:40;;;;;;;13.32;1.80;;;8.30;34.00;;;;;;4897306;29;20558;-74
2022/02/19 01:34:09;;;;;;;7.20;1.75;;;8.30;33.80;;;;;;4897146;29;20590;-74
2022/02/19 01:36:37;;;;;;;9.32;1.67;;;8.20;33.90;;;;;;4897333;29;20247;-74
2022/02/19 01:39:04;;;;;;;6.65;1.88;;;8.30;33.10;;;;;;4897359;29;20236;-74
2022/02/19 01:41:31;;;;;;;5.50;1.40;;;8.20;32.70;;;;;;4897688;29;20306;-74
2022/02/19 01:44:05;;;;;;;3.05;1.23;;;8.20;33.10;;;;;;4897493;29;20217;-74
2022/02/19 01:46:32;;;;;;;3.75;1.92;;;8.20;32.80;;;;;;4897291;29;20216;-75
2022/02/19 01:48:59;;;;;;;9.05;1.80;;;8.20;33.30;;;;;;4897200;29;20232;-74
2022/02/19 01:51:30;;;;;;;7.10;2.15;;;8.10;33.80;;;;;;4897060;29;20216;-75
2022/02/19 01:53:57;;;;;;;9.52;1.75;;;8.10;33.80;;;;;;4898928;29;20201;-73
2022/02/19 01:56:24;;;;;;;7.30;1.92;;;8.10;33.80;;;;;;4898881;29;20208;-76
2022/02/19 01:58:51;;;;;;;8.40;2.70;;;8.10;33.80;;;;;;4898740;29;20264;-74
2022/02/19 02:01:18;;;;;;;5.28;1.42;;;8.00;34.00;;;;;;4898510;29;20228;-76
2022/02/19 02:03:45;;;;;;;7.82;1.63;;;8.00;34.10;;;;;;4899273;29;20323;-75
2022/02/19 02:06:13;;;;;;;8.18;2.08;;;8.00;34.40;;;;;;4899710;29;20217;-75
2022/02/19 02:08:41;;;;;;;5.70;1.80;;;8.00;34.40;;;;;;4897834;29;20319;-74
2022/02/19 02:11:09;;;;;;;9.45;2.10;;;8.00;34.20;;;;;;4898538;29;20213;-74
2022/02/19 02:13:36;;;;;;;6.80;1.75;;;8.00;34.80;;;;;;4899496;29;20209;-73
2022/02/19 02:16:03;;;;;;;4.28;1.70;;;8.00;34.60;;;;;;4899441;29;20628;-74
2022/02/19 02:18:30;;;;;;;9.38;1.60;;;8.00;34.60;;;;;;4898568;29;20242;-75
2022/02/19 02:20:56;;;;;;;8.48;1.85;;;8.00;34.70;;;;;;4902215;29;20220;-74
2022/02/19 02:23:24;;;;;;;9.27;1.95;;;7.90;34.80;;;;;;4904470;29;20252;-74
2022/02/19 02:25:53;;;;;;;8.02;2.33;;;7.90;34.80;;;;;;4910870;29;20275;-73
2022/02/19 02:28:20;;;;;;;9.00;2.47;;;7.90;35.50;;;;;;4914821;29;20280;-73
2022/02/19 02:30:48;;;;;;;10.77;2.17;;;7.90;35.40;;;;;;4913465;29;20221;-73
2022/02/19 02:33:17;;;;;;;6.25;2.05;;;7.80;35.50;;;;;;4919486;29;20198;-74
2022/02/19 02:35:44;;;;;;;7.97;2.20;;;7.80;35.70;;;;;;4920097;29;20194;-74
2022/02/19 02:38:12;;;;;;;11.50;2.10;;;7.80;35.70;;;;;;4920341;29;20301;-74
2022/02/19 02:40:41;;;;;;;7.63;1.60;;;7.70;36.00;;;;;;4918458;29;20216;-74
2022/02/19 02:43:08;;;;;;;5.80;1.63;;;7.80;35.60;;;;;;4904190;29;20245;-75
2022/02/19 02:45:35;;;;;;;6.57;1.70;;;7.80;35.70;;;;;;4883396;29;20210;-73
2022/02/19 02:48:02;;;;;;;3.58;1.45;;;7.70;35.70;;;;;;4881251;29;20277;-77
2022/02/19 02:50:28;;;;;;;12.00;2.35;;;7.70;36.30;;;;;;4881337;29;20216;-72
2022/02/19 02:52:55;;;;;;;6.82;1.83;;;7.70;35.70;;;;;;4884076;29;20208;-73
2022/02/19 02:55:22;;;;;;;8.13;1.60;;;7.60;35.80;;;;;;4899740;29;20218;-74
2022/02/19 02:57:50;;;;;;;8.73;1.60;;;7.60;36.10;;;;;;4899836;29;20228;-73
2022/02/19 03:00:17;;;;;;;6.53;1.63;;;7.50;36.50;;;;;;4899606;29;20305;-74
2022/02/19 03:02:44;;;;;;;8.25;1.90;;;7.50;36.90;;;;;;4899737;29;20320;-73
2022/02/19 03:05:12;;;;;;;6.68;1.92;;;7.40;37.10;;;;;;4899755;29;20290;-74
2022/02/19 03:07:39;;;;;;;10.20;1.55;;;7.40;37.20;;;;;;4900757;29;20276;-74
2022/02/19 03:10:08;;;;;;;10.52;2.10;;;7.30;37.10;;;;;;4900893;29;20700;-74
2022/02/19 03:12:35;;;;;;;9.40;2.20;;;7.30;37.10;;;;;;4901285;29;20213;-74
2022/02/19 03:15:05;;;;;;;10.73;2.33;;;7.20;37.00;;;;;;4902506;29;20219;-73
2022/02/19 03:17:36;;;;;;;6.70;1.45;;;7.20;37.10;;;;;;4905636;29;20643;-74
2022/02/19 03:20:03;;;;;;;11.20;2.50;;;7.20;37.90;;;;;;4907667;29;20214;-73
2022/02/19 03:22:30;;;;;;;4.70;1.40;;;7.10;37.70;;;;;;4916826;29;20256;-75
2022/02/19 03:24:57;;;;;;;7.30;1.77;;;7.10;37.00;;;;;;4915795;29;20220;-74
2022/02/19 03:27:24;;;;;;;8.68;2.20;;;7.10;37.30;;;;;;4915749;29;20213;-76
2022/02/19 03:29:51;;;;;;;7.18;1.70;;;7.10;38.00;;;;;;4911458;29;20287;-74
2022/02/19 03:32:20;;;;;;;6.38;1.90;;;7.10;38.00;;;;;;4902957;29;20233;-74
2022/02/19 03:34:47;;;;;;;4.47;1.75;;;7.00;37.90;;;;;;4901937;29;20227;-74
2022/02/19 03:37:14;;;;;;;9.63;2.20;;;7.00;37.90;;;;;;4904162;29;20296;-73
2022/02/19 03:39:41;;;;;;;6.78;2.00;;;7.00;37.90;;;;;;4906261;29;20207;-74
2022/02/19 03:42:08;;;;;;;9.77;2.10;;;7.00;37.90;;;;;;4903191;29;20241;-73
2022/02/19 03:44:35;;;;;;;8.70;1.75;;;7.00;37.90;;;;;;4902153;29;20216;-73
2022/02/19 03:47:01;;;;;;;6.28;1.67;;;7.00;37.90;;;;;;4902703;29;20705;-75
2022/02/19 03:49:30;;;;;;;3.67;1.33;;;7.00;37.90;;;;;;4902775;29;20230;-73
2022/02/19 03:51:56;;;;;;;9.98;2.20;;;7.00;37.90;;;;;;4902388;29;20264;-74
2022/02/19 03:54:23;;;;;;;8.50;2.80;;;7.00;37.90;;;;;;4903529;29;20215;-73
2022/02/19 03:56:50;;;;;;;9.80;2.05;;;6.90;37.80;;;;;;4901946;29;20217;-73
2022/02/19 03:59:17;;;;;;;10.23;1.88;;;6.90;37.90;;;;;;4901177;29;20251;-74
2022/02/19 04:01:45;;;;;;;11.43;1.90;;;6.80;38.60;;;;;;4899408;29;20209;-74
2022/02/19 04:04:12;;;;;;;8.70;1.80;;;6.70;38.50;;;;;;4898515;29;20213;-73
2022/02/19 04:06:40;;;;;;;6.20;1.80;;;6.80;38.60;;;;;;4898078;29;20256;-75
2022/02/19 04:09:07;;;;;;;12.55;1.50;;;6.80;38.40;;;;;;4898594;29;20332;-76
2022/02/19 04:11:34;;;;;;;9.60;2.40;;;6.70;38.80;;;;;;4898002;29;20200;-73
2022/02/19 04:14:01;;;;;;;4.55;1.30;;;6.80;38.90;;;;;;4898022;29;20674;-73
2022/02/19 04:16:28;;;;;;;11.00;1.90;;;6.70;38.90;;;;;;4898346;29;20213;-76
2022/02/19 04:18:55;;;;;;;6.35;1.67;;;6.80;37.90;;;;;;4898346;29;20228;-74
2022/02/19 04:21:22;;;;;;;6.53;2.03;;;6.80;37.70;;;;;;4897742;29;20295;-75
2022/02/19 04:23:50;;;;;;;9.00;1.95;;;6.80;38.00;;;;;;4898568;29;20324;-73
2022/02/19 04:26:17;;;;;;;10.20;1.70;;;6.70;38.20;;;;;;4898373;29;20269;-73
2022/02/19 04:28:44;;;;;;;12.57;2.40;;;6.70;38.30;;;;;;4898178;29;20332;-73
2022/02/19 04:31:11;;;;;;;3.25;1.20;;;6.60;38.60;;;;;;4897981;29;20248;-73
2022/02/19 04:33:38;;;;;;;6.95;2.10;;;6.60;38.50;;;;;;4897884;29;20232;-74
2022/02/19 04:36:05;;;;;;;7.05;1.30;;;6.60;38.50;;;;;;4898125;29;20200;-73
2022/02/19 04:38:32;;;;;;;11.07;2.42;;;6.50;38.60;;;;;;4897788;29;20761;-73
2022/02/19 04:41:01;;;;;;;10.57;2.70;;;6.50;38.70;;;;;;4897603;29;20216;-73
2022/02/19 04:43:27;;;;;;;5.65;1.60;;;6.40;39.00;;;;;;4897869;29;20709;-77
2022/02/19 04:45:54;;;;;;;7.10;1.95;;;6.40;39.50;;;;;;4897755;29;20733;-74
2022/02/19 04:48:21;;;;;;;8.80;1.85;;;6.40;39.60;;;;;;4897888;29;20251;-74
2022/02/19 04:50:48;;;;;;;4.88;1.90;;;6.40;39.60;;;;;;4898101;29;20223;-77
2022/02/19 04:53:15;;;;;;;14.00;2.47;;;6.30;39.50;;;;;;4900965;29;20234;-75
2022/02/19 04:55:42;;;;;;;12.43;2.40;;;6.30;39.40;;;;;;4902246;29;20694;-73
2022/02/19 04:58:10;;;;;;;6.82;1.70;;;6.30;39.60;;;;;;4903605;29;20228;-73
2022/02/19 05:00:37;;;;;;;2.42;1.55;;;6.30;39.80;;;;;;4891575;29;20228;-74
2022/02/19 05:03:04;;;;;;;10.60;2.63;;;6.30;39.90;;;;;;4890270;29;20231;-75
2022/02/19 05:05:30;;;;;;;8.05;2.35;;;6.20;40.00;;;;;;4896925;29;20297;-75
2022/02/19 05:07:57;;;;;;;7.78;1.70;;;6.20;40.80;;;;;;4898358;29;20242;-75
2022/02/19 05:10:24;;;;;;;8.35;2.03;;;6.20;39.90;;;;;;4898757;29;20578;-76
2022/02/19 05:12:52;;;;;;;8.23;1.75;;;6.30;39.60;;;;;;4898127;29;20296;-76
2022/02/19 05:15:20;;;;;;;9.93;1.75;;;6.30;39.70;;;;;;4898059;29;20213;-76
2022/02/19 05:17:48;;;;;;;4.00;1.33;;;6.30;39.80;;;;;;4897642;29;20244;-76
2022/02/19 05:20:18;;;;;;;4.63;1.00;;;6.20;40.00;;;;;;4897310;29;20197;-76
2022/02/19 05:22:45;;;;;;;5.10;2.00;;;6.10;40.10;;;;;;4898756;29;20301;-76
2022/02/19 05:25:12;;;;;;;5.97;1.70;;;6.10;40.30;;;;;;4898890;29;20222;-76
2022/02/19 05:27:39;;;;;;;3.42;1.40;;;6.10;40.40;;;;;;4899040;29;20259;-76
2022/02/19 05:30:07;;;;;;;7.03;2.20;;;6.10;40.60;;;;;;4905632;29;20289;-74
2022/02/19 05:32:35;;;;;;;6.55;1.73;;;6.10;40.40;;;;;;4905148;29;20212;-75
2022/02/19 05:35:02;;;;;;;6.50;1.90;;;6.00;40.60;;;;;;4899025;29;20208;-76
2022/02/19 05:37:30;;;;;;;6.55;2.17;;;6.00;40.60;;;;;;4898734;29;20338;-73
2022/02/19 05:39:57;;;;;;;9.38;1.85;;;6.00;40.60;;;;;;4897486;29;20208;-73
2022/02/19 05:42:24;;;;;;;6.75;1.52;;;5.90;40.60;;;;;;4896923;29;20333;-76
2022/02/19 05:44:51;;;;;;;6.80;1.10;;;5.90;40.80;;;;;;4897356;29;20209;-74
2022/02/19 05:47:18;;;;;;;8.82;2.03;;;5.90;40.50;;;;;;4897395;29;20243;-73
2022/02/19 05:49:47;;;;;;;5.60;1.45;;;6.00;40.50;;;;;;4897586;29;20216;-74
2022/02/19 05:52:14;;;;;;;6.53;1.83;;;5.90;40.60;;;;;;4896794;29;20704;-74
2022/02/19 05:54:41;;;;;;;8.20;1.77;;;5.90;40.50;;;;;;4898394;29;20204;-76
2022/02/19 05:57:08;;;;;;;11.07;2.00;;;5.90;40.40;;;;;;4900207;29;20630;-74
2022/02/19 05:59:35;;;;;;;3.70;1.27;;;5.90;40.40;;;;;;4900566;29;20243;-74
2022/02/19 06:02:02;;;;;;;5.95;1.58;;;5.90;40.40;;;;;;4900664;29;20216;-74
2022/02/19 06:04:29;;;;;;;6.93;1.70;;;5.80;40.40;;;;;;4900778;29;20242;-74
2022/02/19 06:06:57;;;;;;;7.55;1.65;;;5.80;40.80;;;;;;4900471;29;20585;-76
2022/02/19 06:09:24;;;;;;;9.07;2.15;;;5.80;40.80;;;;;;4900748;29;20236;-77
2022/02/19 06:11:50;;;;;;;5.28;1.45;;;5.80;40.90;;;;;;4900926;29;20205;-74
2022/02/19 06:14:17;;;;;;;8.85;2.00;;;5.80;41.00;;;;;;4901718;29;20680;-74
2022/02/19 06:16:44;;;;;;;7.13;1.30;;;5.70;40.90;;;;;;4902164;29;20212;-75
2022/02/19 06:19:11;;;;;;;3.38;1.70;;;5.70;41.00;;;;;;4900969;29;20242;-76
2022/02/19 06:21:38;;;;;;;8.68;1.77;;;5.70;40.70;;;;;;4901056;29;20212;-75
2022/02/19 06:24:07;;;;;;;4.80;1.80;;;5.70;41.60;;;;;;4900975;29;20236;-75
2022/02/19 06:26:34;;;;;;;6.20;1.45;;;5.70;41.00;;;;;;4901596;29;20222;-75
2022/02/19 06:29:01;;;;;;;8.88;1.70;;;5.70;41.00;;;;;;4907528;29;20244;-74
2022/02/19 06:31:28;;;;;;;10.73;1.80;;;5.60;41.00;;;;;;4905286;29;20213;-74
2022/02/19 06:33:55;;;;;;;6.40;1.83;;;5.60;41.30;;;;;;4902903;29;20213;-76
2022/02/19 06:36:22;;;;;;;5.78;1.83;;;5.60;41.30;;;;;;4902309;29;20209;-75
2022/02/19 06:38:49;;;;;;;4.55;1.80;;;5.60;41.30;;;;;;4901599;29;20232;-75
2022/02/19 06:41:17;;;;;;;8.07;1.35;;;5.60;41.30;;;;;;4901169;29;20289;-76
2022/02/19 06:43:44;;;;;;;5.75;1.45;;;5.60;41.60;;;;;;4901372;29;20662;-74
2022/02/19 06:46:11;;;;;;;7.25;1.65;;;5.50;42.20;;;;;;4900779;29;20220;-75
2022/02/19 06:48:38;;;;;;;10.32;2.13;;;5.60;42.30;;;;;;4900914;29;20296;-74
2022/02/19 06:51:05;;;;;;;9.20;1.40;;;5.50;41.50;;;;;;4900561;29;20232;-75
2022/02/19 06:53:32;;;;;;;5.63;1.70;;;5.50;41.50;;;;;;4901662;29;20673;-74
2022/02/19 06:55:59;;;;;;;6.35;1.70;;;5.60;41.60;;;;;;4901914;29;20208;-75
2022/02/19 06:58:27;;;;;;;4.53;1.80;;;5.50;41.80;;;;;;4904703;29;20261;-76
2022/02/19 07:00:54;;;;;;;3.90;1.30;;;5.50;42.10;;;;;;4903004;29;20254;-75
2022/02/19 07:03:20;;;;;;;7.57;1.58;;;5.50;42.10;;;;;;4901617;29;20232;-75
2022/02/19 07:05:51;;;;;;;7.05;1.92;;;5.60;42.00;;;;;;4901588;29;20294;-75
2022/02/19 07:08:19;;;;;;;4.43;1.88;;;5.60;42.10;;;;;;4901733;29;20232;-77
2022/02/19 07:10:46;;;;;;;4.60;1.48;;;5.60;42.10;;;;;;4901615;29;20203;-75
2022/02/19 07:13:13;;;;;;;5.65;1.40;;;5.60;42.10;;;;;;4902994;29;20307;-75
2022/02/19 07:15:42;;;;;;;4.97;1.40;;;5.60;42.30;;;;;;4904215;29;20648;-75
2022/02/19 07:18:08;;;;;;;4.10;1.65;;;5.60;42.30;;;;;;4910147;29;20237;-75
2022/02/19 07:20:37;;;;;;;10.93;1.88;;;5.60;42.60;;;;;;4913434;29;20218;-75
2022/02/19 07:23:04;;;;;;;3.67;1.13;;;5.70;42.70;;;;;;4915137;29;20222;-73
2022/02/19 07:25:31;;;;;;;6.78;1.60;;;5.60;42.60;;;;;;4917571;29;20208;-74
2022/02/19 07:27:58;;;;;;;6.07;1.60;;;5.70;42.70;;;;;;4917283;29;20303;-75
2022/02/19 07:30:25;;;;;;;10.30;1.60;;;5.70;42.60;;;;;;4915994;29;20212;-75
2022/02/19 07:32:53;;;;;;;4.85;1.30;;;5.70;42.60;;;;;;4913476;29;20238;-74
2022/02/19 07:35:21;;;;;;;7.35;2.33;;;5.70;42.40;;;;;;4909402;29;20226;-75
2022/02/19 07:37:49;;;;;;;7.00;1.77;;;5.80;42.60;;;;;;4900852;29;20604;-75
2022/02/19 07:40:16;;;;;;;7.50;1.55;;;5.80;42.70;;;;;;4899773;29;20216;-74
2022/02/19 07:42:43;;;;;;;5.75;1.85;;;5.80;42.60;;;;;;4900340;29;20223;-75
2022/02/19 07:45:10;;;;;;;10.68;2.90;;;5.90;42.90;;;;;;4900712;29;20240;-76
2022/02/19 07:47:37;;;;;;;5.60;1.92;;;5.90;42.60;;;;;;4899811;29;20604;-75
2022/02/19 07:58:19;;;;;;;8.02;3.22;;;6.10;42.50;;;;;;4881269;29;20293;-76
2022/02/19 08:00:47;;;;;;;7.38;1.27;;;6.10;42.30;;;;;;4881529;29;20213;-74
2022/02/19 08:03:14;;;;;;;7.35;1.90;;;6.20;42.10;;;;;;4900449;29;20301;-76
2022/02/19 08:05:43;;;;;;;8.25;1.85;;;6.20;42.10;;;;;;4900267;29;20276;-75
2022/02/19 08:08:11;;;;;;;5.05;1.77;;;6.30;42.20;;;;;;4899710;29;20566;-76
2022/02/19 08:10:37;;;;;;;6.25;2.00;;;6.40;42.00;;;;;;4900389;29;20319;-75
2022/02/19 08:13:07;;;;;;;7.15;1.70;;;6.40;42.10;;;;;;4900160;29;20235;-75
2022/02/19 08:15:35;;;;;;;5.05;1.75;;;6.30;42.00;;;;;;4901272;29;20303;-73
2022/02/19 08:18:02;;;;;;;8.13;1.73;;;6.40;42.00;;;;;;4899862;29;20738;-73
2022/02/19 08:20:30;;;;;;;1.92;1.10;;;6.40;41.80;;;;;;4906352;29;20216;-76
2022/02/19 08:22:59;;;;;;;7.35;1.27;;;6.50;41.80;;;;;;4902918;29;20224;-74
2022/02/19 08:25:26;;;;;;;5.65;1.40;;;6.50;41.80;;;;;;4899213;29;20239;-74
2022/02/19 08:27:54;;;;;;;6.60;1.83;;;6.50;42.00;;;;;;4898549;29;20232;-75
2022/02/19 08:30:21;;;;;;;4.97;1.80;;;6.50;41.80;;;;;;4898829;29;20614;-74
2022/02/19 08:32:48;;;;;;;5.50;1.60;;;6.50;41.50;;;;;;4898653;29;20293;-76
2022/02/19 08:35:15;;;;;;;3.70;1.45;;;6.50;41.60;;;;;;4899331;29;20213;-75
2022/02/19 08:37:42;;;;;;;8.32;1.50;;;6.50;41.20;;;;;;4898361;29;20224;-76
2022/02/19 08:40:14;;;;;;;8.32;1.73;;;6.40;41.50;;;;;;4898509;29;20295;-77
2022/02/19 08:42:42;;;;;;;6.25;1.48;;;6.50;41.80;;;;;;4898494;29;20213;-75
2022/02/19 08:45:10;;;;;;;6.70;1.55;;;6.50;41.10;;;;;;4899366;29;20671;-76
2022/02/19 08:47:37;;;;;;;9.25;1.95;;;6.60;41.50;;;;;;4898561;29;20311;-77
2022/02/19 08:50:06;;;;;;;8.00;1.65;;;6.60;41.30;;;;;;4899027;29;20224;-76
2022/02/19 08:52:33;;;;;;;6.28;3.75;;;6.70;42.10;;;;;;4900433;29;20236;-75
2022/02/19 08:55:00;;;;;;;7.88;2.33;;;6.80;41.00;;;;;;4899308;29;20209;-76
2022/02/19 08:57:29;;;;;;;7.82;1.80;;;6.70;41.10;;;;;;4898643;29;20231;-76
2022/02/19 08:59:55;;;;;;;5.32;1.60;;;6.70;40.50;;;;;;4899496;29;20336;-75
2022/02/19 09:02:22;;;;;;;8.77;2.13;;;6.60;41.10;;;;;;4903507;29;20691;-75
2022/02/19 09:04:49;;;;;;;6.93;2.75;;;6.60;41.40;;;;;;4909501;29;20274;-75
2022/02/19 09:07:17;;;;;;;11.55;2.70;;;6.70;41.10;;;;;;4916056;29;20267;-76
2022/02/19 09:09:44;;;;;;;11.30;1.92;;;6.70;41.00;;;;;;4916344;29;20213;-75
2022/02/19 09:12:11;;;;;;;4.43;1.52;;;6.70;41.20;;;;;;4907856;29;20213;-76
2022/02/19 09:14:40;;;;;;;6.25;2.10;;;6.60;40.80;;;;;;4900622;29;20622;-76
2022/02/19 09:17:07;;;;;;;8.15;2.00;;;6.70;41.10;;;;;;4899279;29;20255;-75
2022/02/19 09:19:34;;;;;;;9.60;1.60;;;6.80;41.60;;;;;;4901234;29;20613;-74
2022/02/19 09:22:02;;;;;;;5.63;1.73;;;6.90;40.60;;;;;;4896749;29;20801;-73
2022/02/19 09:24:30;;;;;;;4.85;2.08;;;6.90;40.60;;;;;;4897539;29;20729;-74
2022/02/19 09:26:57;;;;;;;4.85;1.90;;;7.00;40.20;;;;;;4898640;29;20240;-74
2022/02/19 09:29:24;;;;;;;7.35;2.17;;;7.20;40.10;;;;;;4898092;29;20250;-74
2022/02/19 09:31:53;;;;;;;6.00;2.00;;;7.40;39.50;;;;;;4905169;29;20233;-74
2022/02/19 09:34:22;;;;;;;6.35;2.10;;;7.60;38.40;;;;;;4900335;29;20744;-74
2022/02/19 09:36:50;;;;;;;4.88;1.85;;;7.50;38.30;;;;;;4901753;29;20280;-74
2022/02/19 09:39:18;;;;;;;10.25;2.30;;;7.50;38.30;;;;;;4903543;29;20242;-74
2022/02/19 09:41:45;;;;;;;8.75;2.00;;;7.50;38.30;;;;;;4906219;29;20273;-72
2022/02/19 09:44:12;;;;;;;9.50;2.08;;;7.50;38.30;;;;;;4902069;29;20229;-73
2022/02/19 09:46:39;;;;;;;8.15;2.03;;;7.50;38.30;;;;;;4905749;29;20246;-75
2022/02/19 09:49:09;;;;;;;8.70;1.80;;;7.40;38.20;;;;;;4903427;29;20334;-73
2022/02/19 09:51:38;;;;;;;4.10;1.30;;;7.40;38.60;;;;;;4898670;29;20309;-74
2022/02/19 09:54:04;;;;;;;4.15;1.35;;;7.50;38.30;;;;;;4899188;29;20213;-74
2022/02/19 09:56:32;;;;;;;8.32;1.50;;;7.60;38.40;;;;;;4908901;29;20212;-75
2022/02/19 09:58:59;;;;;;;7.55;1.88;;;7.50;38.30;;;;;;4919092;29;20232;-74
2022/02/19 10:01:28;;;;;;;5.03;1.60;;;7.70;39.20;;;;;;4900320;29;20622;-75
2022/02/19 10:03:57;;;;;;;10.02;2.22;;;7.80;38.60;;;;;;4899234;29;20233;-74
2022/02/19 10:06:30;;;;;;;5.70;1.80;;;8.00;38.60;;;;;;4899384;29;20216;-75
2022/02/19 10:09:14;;;;;;;11.63;2.22;;;7.90;37.30;;;;;;4900008;29;20332;-77
2022/02/19 10:11:42;;;;;;;8.48;1.90;;;7.80;37.10;;;;;;4900683;29;20244;-75
2022/02/19 10:14:23;;;;;;;5.70;1.50;;;7.80;37.20;;;;;;4901497;29;20627;-74
2022/02/19 10:17:15;;;;;;;3.70;2.17;;;7.80;37.50;;;;;;4903913;29;20237;-75
2022/02/19 10:19:50;;;;;;;3.70;1.60;;;7.80;38.60;;;;;;4904913;29;20261;-75
2022/02/19 10:22:20;;;;;;;6.38;2.10;;;8.00;38.50;;;;;;4915302;29;20232;-74
2022/02/19 10:24:47;;;;;;;8.20;2.15;;;8.10;37.50;;;;;;4897951;29;20245;-74
2022/02/19 10:27:15;;;;;;;7.60;1.67;;;8.20;36.70;;;;;;4897758;29;20210;-75
2022/02/19 10:29:54;;;;;;;4.32;1.50;;;8.10;36.10;;;;;;4897702;29;20226;-75
2022/02/19 10:32:22;;;;;;;7.25;2.20;;;8.00;34.90;;;;;;4879510;29;20301;-74
2022/02/19 10:35:01;;;;;;;5.82;1.48;;;7.90;35.50;;;;;;4879061;29;20302;-76
2022/02/19 10:37:30;;;;;;;4.90;1.73;;;7.80;36.20;;;;;;4878665;29;20221;-74
2022/02/19 10:39:59;;;;;;;5.35;1.80;;;7.80;36.20;;;;;;4881368;29;20209;-74
2022/02/19 10:42:34;;;;;;;3.85;1.55;;;7.70;35.80;;;;;;4900673;29;20274;-74
2022/02/19 10:45:08;;;;;;;6.70;1.83;;;7.70;36.10;;;;;;4902020;29;20248;-74
2022/02/19 10:47:35;;;;;;;4.10;1.58;;;7.60;36.50;;;;;;4922187;29;20257;-74
2022/02/19 10:50:08;;;;;;;8.77;2.40;;;7.60;36.40;;;;;;4902895;29;20209;-74
2022/02/19 10:52:37;;;;;;;11.63;1.80;;;7.50;37.50;;;;;;4899456;29;20205;-73
2022/02/19 10:55:06;;;;;;;2.80;1.50;;;7.50;37.30;;;;;;4899622;29;20670;-75
2022/02/19 10:57:38;;;;;;;6.90;2.25;;;7.50;37.90;;;;;;4900060;29;20213;-75
2022/02/19 11:00:13;;;;;;;3.55;1.80;;;7.40;37.30;;;;;;4903540;29;20303;-74
2022/02/19 11:02:40;;;;;;;4.18;1.65;;;7.30;37.30;;;;;;4900489;29;20212;-75
2022/02/19 11:05:09;;;;;;;8.85;1.80;;;7.40;37.40;;;;;;4899488;29;20248;-75
2022/02/19 11:07:38;;;;;;;9.30;1.73;;;7.40;38.20;;;;;;4900515;29;20694;-75
2022/02/19 11:10:06;;;;;;;8.27;1.50;;;7.40;37.30;;;;;;4901075;29;20216;-75
2022/02/19 11:12:33;;;;;;;9.25;1.73;;;7.40;37.10;;;;;;4900446;29;20642;-76
2022/02/19 11:15:00;;;;;;;6.68;1.52;;;7.60;36.40;;;;;;4900352;29;20206;-73
2022/02/19 11:17:29;;;;;;;4.93;1.70;;;7.80;35.60;;;;;;4900283;29;20621;-75
2022/02/19 11:20:00;;;;;;;7.85;2.65;;;8.00;35.50;;;;;;4899894;29;20255;-74
2022/02/19 11:22:30;;;;;;;4.97;1.92;;;8.20;35.50;;;;;;4900096;29;20221;-74
2022/02/19 11:24:59;;;;;;;2.72;1.13;;;8.30;34.90;;;;;;4899959;29;20227;-75
2022/02/19 11:27:28;;;;;;;4.20;1.63;;;8.50;33.30;;;;;;4901725;29;20228;-77
2022/02/19 11:29:59;;;;;;;3.03;1.00;;;8.50;33.30;;;;;;4902339;29;20746;-77
2022/02/19 11:32:27;;;;;;;4.75;1.20;;;8.50;32.00;;;;;;4882173;29;20669;-75
2022/02/19 11:34:54;;;;;;;3.90;1.80;;;8.30;32.10;;;;;;4882945;29;20211;-76
2022/02/19 11:37:22;;;;;;;4.50;1.65;;;8.30;32.60;;;;;;4885173;29;20222;-74
2022/02/19 11:40:05;;;;;;;5.30;1.65;;;8.50;32.40;;;;;;4888487;29;20241;-75
2022/02/19 11:42:37;;;;;;;3.95;1.70;;;8.70;32.50;;;;;;4882432;29;20556;-77
2022/02/19 11:45:22;;;;;;;4.25;1.52;;;8.70;32.00;;;;;;4882775;29;20716;-76
2022/02/19 11:47:51;;;;;;;7.57;1.65;;;8.70;32.20;;;;;;4881928;29;20235;-77
2022/02/19 11:50:19;;;;;;;4.07;1.52;;;8.80;32.20;;;;;;4881920;29;20216;-77
2022/02/19 11:53:07;;;;;;;7.03;1.50;;;8.90;32.00;;;;;;4881173;29;20298;-75
2022/02/19 11:55:36;;;;;;;4.90;1.48;;;8.90;31.00;;;;;;4882231;29;20215;-77
2022/02/19 11:58:05;;;;;;;6.35;1.80;;;8.90;31.00;;;;;;4883016;29;20244;-76
2022/02/19 12:00:48;;;;;;;3.92;1.60;;;8.90;31.40;;;;;;4882806;29;20246;-75
2022/02/19 12:03:17;;;;;;;6.57;1.60;;;9.00;31.10;;;;;;4886193;29;20207;-78
2022/02/19 12:06:08;;;;;;;8.43;1.67;;;9.10;31.40;;;;;;4885439;29;20322;-75
2022/02/19 12:09:11;;;;;;;5.30;1.85;;;9.10;30.80;;;;;;4885834;29;20239;-75
2022/02/19 12:12:05;;;;;;;4.60;1.33;;;9.10;30.40;;;;;;4882507;29;20218;-75
2022/02/19 12:15:01;;;;;;;7.18;1.75;;;9.30;30.00;;;;;;4882946;29;20244;-77
2022/02/19 12:17:47;;;;;;;6.07;2.08;;;9.30;30.00;;;;;;4882443;29;20221;-76
2022/02/19 12:20:34;;;;;;;3.65;0.88;;;8.90;30.40;;;;;;4885336;29;20314;-76
2022/02/19 12:23:03;;;;;;;5.88;1.65;;;8.80;30.10;;;;;;4885037;29;20662;-76
2022/02/19 12:26:03;;;;;;;4.30;1.05;;;8.70;30.00;;;;;;4885737;29;20238;-77
2022/02/19 12:46:47;;;;;;;7.88;1.60;;;8.80;29.60;;;;;;5767080;23;20190;-80
2022/02/19 12:49:16;;;;;;;6.38;1.60;;;8.80;29.60;;;;;;4902022;29;20209;-81
2022/02/19 12:51:43;;;;;;;3.80;1.42;;;8.60;29.50;;;;;;4902184;29;20272;-81
2022/02/19 12:54:11;;;;;;;3.50;1.63;;;8.60;30.40;;;;;;4893321;29;20209;-82
2022/02/19 12:56:43;;;;;;;7.97;1.85;;;8.50;30.60;;;;;;4892968;29;20256;-81
2022/02/19 12:59:10;;;;;;;2.67;1.67;;;8.60;30.70;;;;;;4891067;29;20218;-81
2022/02/19 13:01:38;;;;;;;2.75;1.30;;;8.80;30.70;;;;;;4893998;29;20223;-80
2022/02/19 13:04:07;;;;;;;3.45;1.15;;;9.00;29.80;;;;;;4894035;29;20667;-81
2022/02/19 13:06:47;;;;;;;3.90;1.10;;;9.20;29.90;;;;;;4894493;29;20228;-80
2022/02/19 13:09:21;;;;;;;5.53;1.20;;;9.30;28.00;;;;;;4893952;29;20217;-81
2022/02/19 13:11:50;;;;;;;3.13;1.08;;;9.40;26.70;;;;;;4893864;29;20220;-80
2022/02/19 13:14:17;;;;;;;4.85;1.08;;;9.40;26.50;;;;;;4889938;29;20556;-78
2022/02/19 13:16:59;;;;;;;4.88;1.30;;;9.60;26.20;;;;;;4888446;29;20227;-81
2022/02/19 13:19:29;;;;;;;2.38;1.00;;;9.80;26.10;;;;;;4891814;29;20287;-80
2022/02/19 13:22:01;;;;;;;2.60;1.00;;;9.90;26.40;;;;;;4890873;29;20223;-81
2022/02/19 13:24:30;;;;;;;2.95;1.08;;;9.80;25.30;;;;;;4895487;29;20279;-79
2022/02/19 13:27:12;;;;;;;2.33;0.80;;;9.80;24.50;;;;;;4894162;29;20322;-80
2022/02/19 13:29:40;;;;;;;3.70;1.20;;;9.70;23.80;;;;;;4888861;29;20212;-78